• Join FlightAware (Why Join?)
  • Login
  • US Flag 
05:11PM EDT


 

Airport Tracker/Info


-or-


 

Live Flight TrackerFlight Track Log ✈ N3QE ✈ 31-Jul-2014 ✈ KAPF - KSAV

Flight Track Log - Related Links

Times and Time Zones

All times are in EDT time to prevent confusion due to time zone crossing. See the N3QE flight status page for this flight to view local times or setup timezone preferences in your user account.

Time Position Orientation Groundspeed Altitude Reporting Facility
EDT Latitude Longitude Course Direction KTS MPH feet Rate Location/Type
01:14PM 26.1869 -81.8478 North 212 244 3,600  Level Miami Center
01:15PM 26.2522 -81.8403 North 219 252 5,600 1,740 Climbing Miami Center
01:16PM 26.3169 -81.8322 North 231 266 7,300 1,680 Climbing Miami Center
01:17PM 26.3892 -81.8272 North 238 274 9,100 1,620 Climbing Miami Center
01:18PM 26.4542 -81.8239 North 238 274 10,700 1,500 Climbing Miami Center
01:19PM 26.6259 -81.7500 North  Level FlightAware Approximate
01:19PM 26.5253 -81.8156 North 238 274 12,300  Level Miami Center
01:20PM 26.7054 -81.7500 North  Level FlightAware Approximate
01:20PM 26.5933 -81.8056 North 241 277 13,800  Level Miami Center
01:22PM 26.6636 -81.7956 North 236 272 15,300 1,200 Climbing Miami Center
01:23PM 26.7292 -81.7864 North 237 273 16,300 960 Climbing Miami Center
01:24PM 26.8050 -81.7758 North 254 292 17,400 960 Climbing Miami Center
01:25PM 26.8758 -81.7658 North 254 292 18,400 960 Climbing Miami Center
01:26PM 26.9478 -81.7558 North 258 297 19,400 960 Climbing Miami Center
01:27PM 27.0239 -81.7456 North 259 298 20,400 960 Climbing Miami Center
01:28PM 27.0972 -81.7694 344° North 269 310 21,400 900 Climbing Miami Center
01:29PM 27.1722 -81.7939 344° North 267 307 22,300 900 Climbing Miami Center
01:30PM 27.2469 -81.8192 343° North 267 307 23,300 900 Climbing Miami Center
01:31PM 27.3211 -81.8172 North 262 302 24,200 840 Climbing Miami Center
01:32PM 27.3878 -81.7911 19° North 262 302 25,100 840 Climbing Miami Center
01:33PM 27.4586 -81.7631 19° North 262 302 26,000 840 Climbing Miami Center
01:34PM 27.5308 -81.7353 19° North 262 302 26,900 780 Climbing Miami Center
01:35PM 27.6031 -81.7064 20° North 262 302 27,700 720 Climbing Miami Center
01:36PM 27.6778 -81.6778 19° North 266 306 28,500 780 Climbing Miami Center
01:37PM 27.7522 -81.6542 16° North 267 307 29,400 780 Climbing Miami Center
01:38PM 27.8292 -81.6514 North 269 310 30,200 720 Climbing Miami Center
01:39PM 27.8928 -81.6483 North 268 308 30,900 720 Climbing Miami Center
01:40PM 27.9664 -81.6436 North 267 307 31,700 720 Climbing Miami Center
01:41PM 28.0547 -81.6392 North 263 303 32,500 660 Climbing Miami Center
01:42PM 28.1292 -81.6356 North 266 306 33,100 540 Climbing Miami Center
01:43PM 28.2056 -81.6308 North 270 311 33,700 540 Climbing Miami Center
01:44PM 28.2825 -81.6272 North 274 315 34,300 480 Climbing Miami Center
01:45PM 28.3606 -81.6219 North 276 318 34,800 360 Climbing Miami Center
01:46PM 28.4544 -81.6200 North 273 314 35,100 60 Climbing Jacksonville Center
01:47PM 28.5381 -81.6142 North 279 321 35,000 -60 Descending Jacksonville Center
01:48PM 28.6278 -81.6106 North 301 346 35,000  Level Jacksonville Center
01:49PM 28.7194 -81.6047 North 314 361 35,000  Level Jacksonville Center
01:50PM 28.8008 -81.5989 North 319 367 35,000  Level Jacksonville Center
01:51PM 28.8947 -81.5931 North 329 379 35,000  Level Jacksonville Center
01:52PM 28.9928 -81.5869 North 334 384 35,000  Level Jacksonville Center
01:53PM 29.0844 -81.5858 North 334 384 35,000  Level Jacksonville Center
01:54PM 29.1783 -81.5797 North 334 384 35,000  Level Jacksonville Center
01:55PM 29.2764 -81.5736 North 328 377 35,000 -240 Level Jacksonville Center
01:56PM 29.3703 -81.5700 North 328 377 34,600 -600 Descending Jacksonville Center
01:57PM 29.4725 -81.5614 North 341 392 33,800 -900 Descending Jacksonville Center
01:58PM 29.5728 -81.5553 North 352 405 32,800 -1,020 Descending Jacksonville Center
01:59PM 29.6750 -81.5492 North 357 411 31,800 -1,020 Descending Jacksonville Center
02:00PM 29.7772 -81.5453 North 357 411 30,800 -1,020 Descending Jacksonville Center
02:01PM 29.8772 -81.5392 North 362 417 29,800 -1,020 Descending Jacksonville Center
02:02PM 29.9794 -81.5331 North 362 417 28,800 -1,020 Descending Jacksonville Center
02:03PM 30.0797 -81.5267 North 362 417 27,800 -1,080 Descending Jacksonville Center
02:04PM 30.1819 -81.5206 North 362 417 26,700 -1,380 Descending Jacksonville Center
02:05PM 30.2842 -81.5119 North 362 417 25,100 -1,560 Descending Jacksonville Center
02:06PM 30.3883 -81.5056 North 367 422 23,600 -1,200 Descending Jacksonville Center
02:07PM 30.4803 -81.4922 North 362 417 22,700 -960 Descending Jacksonville Center
02:08PM 30.5758 -81.4594 16° North 362 417 21,700 -900 Descending Jacksonville Center
02:09PM 30.6694 -81.4267 17° North 357 411 21,000 -360 Descending Jacksonville Center
02:10PM 30.7608 -81.3936 17° North 352 405 21,000  Level Jacksonville Center
02:11PM 30.8503 -81.3633 16° North 340 391 21,000  Level Jacksonville Center
02:12PM 30.9397 -81.3278 19° North 340 391 21,000 -420 Level Jacksonville Center
02:13PM 31.0311 -81.2925 18° North 340 391 20,200 -1,200 Descending Jacksonville Center
02:14PM 31.1247 -81.2642 15° North 340 391 18,600 -1,560 Descending Jacksonville Center
02:15PM 31.2139 -81.2286 19° North 340 391 17,100 -1,560 Descending Jacksonville Center
02:16PM 31.3036 -81.2075 11° North 334 384 15,500 -1,800 Descending Jacksonville Center
02:17PM 31.3911 -81.2061 North 315 362 13,500 -2,100 Descending Jacksonville Center
02:18PM 31.4831 -81.2067 360° North 304 350 11,400 -1,260 Descending Jacksonville Center
02:19PM 31.5622 -81.1956 North 292 336 11,000 -240 Descending Jacksonville Center
02:20PM 31.6350 -81.1772 12° North 287 330 11,000 -360 Level Jacksonville Center
02:21PM 31.7142 -81.1586 344° North 287 330 10,300 -1,560 Descending Jacksonville Center
02:22PM 31.7247 -81.2080 344° North  Level FlightAware Approximate
02:22PM 31.7975 -81.1375 12° North 277 319 7,900  Level Jacksonville Center
02:23PM 31.8681 -81.1092 19° North 277 319 6,000 -1,800 Descending Jacksonville Center
02:24PM 31.9342 -81.0689 27° Northeast 271 312 4,400 -1,260 Descending Jacksonville Center
02:25PM 31.9950 -81.0800 351° North 243 280 3,500 -900 Descending Jacksonville Center
02:26PM 32.0578 -81.1006 344° North 235 270 2,600 -900 Descending Jacksonville Center
02:28PM 32.1166 -81.1861 16° North  Level Estimated
02:35PM 32.1167 -81.2000 180° South  Level FlightAware Approximate
02:36PM 32.1276 -81.2021 180° South  Level Estimated
02:37PM 32.1276 -81.2021 180° South  Level Estimated